sensor_id;sensor_type;location;lat;lon;timestamp;P1;durP1;ratioP1;P2;durP2;ratioP2
4577;SDS011;2301;47.354;8.528;2022-12-10T00:01:26;29.42;;;19.20;;
4577;SDS011;2301;47.354;8.528;2022-12-10T00:03:56;25.92;;;17.13;;
4577;SDS011;2301;47.354;8.528;2022-12-10T00:06:24;29.25;;;18.67;;
4577;SDS011;2301;47.354;8.528;2022-12-10T00:08:53;28.88;;;18.42;;
4577;SDS011;2301;47.354;8.528;2022-12-10T00:11:21;29.77;;;18.17;;
4577;SDS011;2301;47.354;8.528;2022-12-10T00:13:50;33.55;;;20.55;;
4577;SDS011;2301;47.354;8.528;2022-12-10T00:16:22;30.63;;;19.50;;
4577;SDS011;2301;47.354;8.528;2022-12-10T00:18:50;31.67;;;19.75;;
4577;SDS011;2301;47.354;8.528;2022-12-10T00:21:21;33.42;;;20.20;;
4577;SDS011;2301;47.354;8.528;2022-12-10T00:23:49;31.15;;;19.83;;
4577;SDS011;2301;47.354;8.528;2022-12-10T00:26:17;29.30;;;18.75;;
4577;SDS011;2301;47.354;8.528;2022-12-10T00:28:49;33.63;;;20.60;;
4577;SDS011;2301;47.354;8.528;2022-12-10T00:31:21;34.53;;;20.90;;
4577;SDS011;2301;47.354;8.528;2022-12-10T00:33:53;34.65;;;20.23;;
4577;SDS011;2301;47.354;8.528;2022-12-10T00:36:32;32.53;;;20.73;;
4577;SDS011;2301;47.354;8.528;2022-12-10T00:39:00;33.40;;;20.83;;
4577;SDS011;2301;47.354;8.528;2022-12-10T00:41:28;34.25;;;21.80;;
4577;SDS011;2301;47.354;8.528;2022-12-10T00:43:55;36.38;;;21.50;;
4577;SDS011;2301;47.354;8.528;2022-12-10T00:46:28;31.67;;;19.50;;
4577;SDS011;2301;47.354;8.528;2022-12-10T00:48:57;29.92;;;18.65;;
4577;SDS011;2301;47.354;8.528;2022-12-10T00:51:27;27.00;;;17.42;;
4577;SDS011;2301;47.354;8.528;2022-12-10T00:53:56;31.73;;;19.10;;
4577;SDS011;2301;47.354;8.528;2022-12-10T00:56:25;30.75;;;17.17;;
4577;SDS011;2301;47.354;8.528;2022-12-10T00:58:53;26.75;;;17.15;;
4577;SDS011;2301;47.354;8.528;2022-12-10T01:01:21;25.38;;;16.85;;
4577;SDS011;2301;47.354;8.528;2022-12-10T01:03:51;23.25;;;16.20;;
4577;SDS011;2301;47.354;8.528;2022-12-10T01:06:20;25.63;;;17.48;;
4577;SDS011;2301;47.354;8.528;2022-12-10T01:08:49;24.73;;;16.83;;
4577;SDS011;2301;47.354;8.528;2022-12-10T01:11:22;26.00;;;15.50;;
4577;SDS011;2301;47.354;8.528;2022-12-10T01:13:53;23.63;;;15.75;;
4577;SDS011;2301;47.354;8.528;2022-12-10T01:16:21;22.30;;;16.02;;
4577;SDS011;2301;47.354;8.528;2022-12-10T01:19:03;21.58;;;14.73;;
4577;SDS011;2301;47.354;8.528;2022-12-10T01:21:36;20.77;;;14.30;;
4577;SDS011;2301;47.354;8.528;2022-12-10T01:24:09;21.17;;;14.32;;
4577;SDS011;2301;47.354;8.528;2022-12-10T01:26:38;19.63;;;13.80;;
4577;SDS011;2301;47.354;8.528;2022-12-10T01:29:05;21.67;;;14.65;;
4577;SDS011;2301;47.354;8.528;2022-12-10T01:31:33;18.48;;;13.55;;
4577;SDS011;2301;47.354;8.528;2022-12-10T01:34:00;21.08;;;14.77;;
4577;SDS011;2301;47.354;8.528;2022-12-10T01:36:30;19.45;;;14.00;;
4577;SDS011;2301;47.354;8.528;2022-12-10T01:39:02;23.05;;;14.13;;
4577;SDS011;2301;47.354;8.528;2022-12-10T01:41:32;21.00;;;14.25;;
4577;SDS011;2301;47.354;8.528;2022-12-10T01:44:03;19.25;;;13.55;;
4577;SDS011;2301;47.354;8.528;2022-12-10T01:46:47;23.52;;;15.57;;
4577;SDS011;2301;47.354;8.528;2022-12-10T01:49:21;22.20;;;15.73;;
4577;SDS011;2301;47.354;8.528;2022-12-10T01:51:50;21.48;;;15.50;;
4577;SDS011;2301;47.354;8.528;2022-12-10T01:54:20;22.35;;;15.35;;
4577;SDS011;2301;47.354;8.528;2022-12-10T01:56:50;22.35;;;15.55;;
4577;SDS011;2301;47.354;8.528;2022-12-10T01:59:27;30.48;;;15.85;;
4577;SDS011;2301;47.354;8.528;2022-12-10T02:01:59;19.77;;;14.15;;
4577;SDS011;2301;47.354;8.528;2022-12-10T02:04:34;21.75;;;14.93;;
4577;SDS011;2301;47.354;8.528;2022-12-10T02:07:12;23.75;;;15.18;;
4577;SDS011;2301;47.354;8.528;2022-12-10T02:09:50;23.08;;;15.02;;
4577;SDS011;2301;47.354;8.528;2022-12-10T02:12:31;23.58;;;15.00;;
4577;SDS011;2301;47.354;8.528;2022-12-10T02:15:06;24.85;;;14.80;;
4577;SDS011;2301;47.354;8.528;2022-12-10T02:17:40;20.38;;;14.35;;
4577;SDS011;2301;47.354;8.528;2022-12-10T02:20:12;21.70;;;15.30;;
4577;SDS011;2301;47.354;8.528;2022-12-10T02:22:45;21.52;;;15.07;;
4577;SDS011;2301;47.354;8.528;2022-12-10T02:25:16;23.83;;;16.27;;
4577;SDS011;2301;47.354;8.528;2022-12-10T02:27:48;24.00;;;15.90;;
4577;SDS011;2301;47.354;8.528;2022-12-10T02:30:20;22.00;;;14.93;;
4577;SDS011;2301;47.354;8.528;2022-12-10T02:32:49;24.85;;;14.93;;
4577;SDS011;2301;47.354;8.528;2022-12-10T02:35:18;24.17;;;16.27;;
4577;SDS011;2301;47.354;8.528;2022-12-10T02:37:49;23.10;;;15.90;;
4577;SDS011;2301;47.354;8.528;2022-12-10T02:40:20;23.30;;;16.27;;
4577;SDS011;2301;47.354;8.528;2022-12-10T02:42:51;23.50;;;15.60;;
4577;SDS011;2301;47.354;8.528;2022-12-10T02:45:21;23.10;;;15.65;;
4577;SDS011;2301;47.354;8.528;2022-12-10T02:47:50;23.95;;;15.55;;
4577;SDS011;2301;47.354;8.528;2022-12-10T02:50:19;23.20;;;15.80;;
4577;SDS011;2301;47.354;8.528;2022-12-10T02:52:47;23.90;;;14.55;;
4577;SDS011;2301;47.354;8.528;2022-12-10T02:55:15;22.55;;;15.35;;
4577;SDS011;2301;47.354;8.528;2022-12-10T02:57:46;22.45;;;15.45;;
4577;SDS011;2301;47.354;8.528;2022-12-10T03:00:25;27.48;;;15.70;;
4577;SDS011;2301;47.354;8.528;2022-12-10T03:03:11;22.05;;;14.40;;
4577;SDS011;2301;47.354;8.528;2022-12-10T03:05:52;24.33;;;15.60;;
4577;SDS011;2301;47.354;8.528;2022-12-10T03:08:27;20.60;;;14.15;;
4577;SDS011;2301;47.354;8.528;2022-12-10T03:11:08;25.75;;;16.13;;
4577;SDS011;2301;47.354;8.528;2022-12-10T03:13:38;22.40;;;13.20;;
4577;SDS011;2301;47.354;8.528;2022-12-10T03:16:11;24.65;;;15.98;;
4577;SDS011;2301;47.354;8.528;2022-12-10T03:18:40;28.80;;;17.60;;
4577;SDS011;2301;47.354;8.528;2022-12-10T03:21:09;22.02;;;14.90;;
4577;SDS011;2301;47.354;8.528;2022-12-10T03:23:39;28.65;;;17.02;;
4577;SDS011;2301;47.354;8.528;2022-12-10T03:26:09;24.60;;;16.38;;
4577;SDS011;2301;47.354;8.528;2022-12-10T03:28:37;26.75;;;16.25;;
4577;SDS011;2301;47.354;8.528;2022-12-10T03:31:07;23.13;;;16.02;;
4577;SDS011;2301;47.354;8.528;2022-12-10T03:33:37;30.33;;;15.65;;
4577;SDS011;2301;47.354;8.528;2022-12-10T03:36:05;27.67;;;16.55;;
4577;SDS011;2301;47.354;8.528;2022-12-10T03:38:34;25.80;;;15.82;;
4577;SDS011;2301;47.354;8.528;2022-12-10T03:41:02;26.42;;;16.10;;
4577;SDS011;2301;47.354;8.528;2022-12-10T03:43:30;22.13;;;15.13;;
4577;SDS011;2301;47.354;8.528;2022-12-10T03:45:57;21.83;;;15.13;;
4577;SDS011;2301;47.354;8.528;2022-12-10T03:48:24;22.27;;;14.80;;
4577;SDS011;2301;47.354;8.528;2022-12-10T03:50:54;26.35;;;16.33;;
4577;SDS011;2301;47.354;8.528;2022-12-10T03:53:22;24.77;;;16.65;;
4577;SDS011;2301;47.354;8.528;2022-12-10T03:55:48;23.73;;;14.40;;
4577;SDS011;2301;47.354;8.528;2022-12-10T03:58:16;23.73;;;15.52;;
4577;SDS011;2301;47.354;8.528;2022-12-10T04:00:43;24.58;;;15.93;;
4577;SDS011;2301;47.354;8.528;2022-12-10T04:03:10;24.65;;;15.93;;
4577;SDS011;2301;47.354;8.528;2022-12-10T04:05:37;23.13;;;16.27;;
4577;SDS011;2301;47.354;8.528;2022-12-10T04:08:05;25.95;;;16.73;;
4577;SDS011;2301;47.354;8.528;2022-12-10T04:10:34;23.98;;;16.25;;
4577;SDS011;2301;47.354;8.528;2022-12-10T04:13:02;23.63;;;16.70;;
4577;SDS011;2301;47.354;8.528;2022-12-10T04:15:46;25.15;;;16.33;;
4577;SDS011;2301;47.354;8.528;2022-12-10T04:18:31;27.13;;;16.77;;
4577;SDS011;2301;47.354;8.528;2022-12-10T04:20:58;25.13;;;16.38;;
4577;SDS011;2301;47.354;8.528;2022-12-10T04:23:43;23.58;;;16.15;;
4577;SDS011;2301;47.354;8.528;2022-12-10T04:26:28;24.25;;;16.17;;
4577;SDS011;2301;47.354;8.528;2022-12-10T04:29:12;23.95;;;16.38;;
4577;SDS011;2301;47.354;8.528;2022-12-10T04:31:39;24.20;;;15.57;;
4577;SDS011;2301;47.354;8.528;2022-12-10T04:34:06;29.95;;;16.30;;
4577;SDS011;2301;47.354;8.528;2022-12-10T04:36:33;23.85;;;16.80;;
4577;SDS011;2301;47.354;8.528;2022-12-10T04:39:02;22.10;;;16.08;;
4577;SDS011;2301;47.354;8.528;2022-12-10T04:41:29;24.85;;;16.17;;
4577;SDS011;2301;47.354;8.528;2022-12-10T04:43:56;24.58;;;15.32;;
4577;SDS011;2301;47.354;8.528;2022-12-10T04:46:23;27.40;;;17.40;;
4577;SDS011;2301;47.354;8.528;2022-12-10T04:48:50;23.42;;;14.85;;
4577;SDS011;2301;47.354;8.528;2022-12-10T04:51:17;25.67;;;16.25;;
4577;SDS011;2301;47.354;8.528;2022-12-10T04:53:44;23.10;;;15.20;;
4577;SDS011;2301;47.354;8.528;2022-12-10T04:56:13;21.48;;;13.65;;
4577;SDS011;2301;47.354;8.528;2022-12-10T04:58:40;25.75;;;16.77;;
4577;SDS011;2301;47.354;8.528;2022-12-10T05:01:07;26.60;;;15.45;;
4577;SDS011;2301;47.354;8.528;2022-12-10T05:03:36;21.45;;;14.70;;
4577;SDS011;2301;47.354;8.528;2022-12-10T05:06:06;25.67;;;15.40;;
4577;SDS011;2301;47.354;8.528;2022-12-10T05:08:36;23.85;;;15.45;;
4577;SDS011;2301;47.354;8.528;2022-12-10T05:11:05;26.67;;;15.20;;
4577;SDS011;2301;47.354;8.528;2022-12-10T05:13:35;27.92;;;17.25;;
4577;SDS011;2301;47.354;8.528;2022-12-10T05:16:02;28.27;;;15.85;;
4577;SDS011;2301;47.354;8.528;2022-12-10T05:18:30;22.92;;;15.23;;
4577;SDS011;2301;47.354;8.528;2022-12-10T05:20:57;27.27;;;16.58;;
4577;SDS011;2301;47.354;8.528;2022-12-10T05:23:25;27.70;;;16.55;;
4577;SDS011;2301;47.354;8.528;2022-12-10T05:26:00;24.83;;;16.55;;
4577;SDS011;2301;47.354;8.528;2022-12-10T05:28:29;25.42;;;16.13;;
4577;SDS011;2301;47.354;8.528;2022-12-10T05:30:58;30.50;;;17.90;;
4577;SDS011;2301;47.354;8.528;2022-12-10T05:33:25;26.85;;;17.23;;
4577;SDS011;2301;47.354;8.528;2022-12-10T05:35:53;30.13;;;17.48;;
4577;SDS011;2301;47.354;8.528;2022-12-10T05:38:21;30.10;;;17.73;;
4577;SDS011;2301;47.354;8.528;2022-12-10T05:40:49;30.25;;;17.77;;
4577;SDS011;2301;47.354;8.528;2022-12-10T05:43:16;26.08;;;17.15;;
4577;SDS011;2301;47.354;8.528;2022-12-10T05:45:43;28.33;;;17.88;;
4577;SDS011;2301;47.354;8.528;2022-12-10T05:48:13;32.22;;;18.35;;
4577;SDS011;2301;47.354;8.528;2022-12-10T05:50:41;29.25;;;17.40;;
4577;SDS011;2301;47.354;8.528;2022-12-10T05:53:08;27.50;;;16.17;;
4577;SDS011;2301;47.354;8.528;2022-12-10T05:55:38;28.08;;;16.83;;
4577;SDS011;2301;47.354;8.528;2022-12-10T05:58:06;26.52;;;16.63;;
4577;SDS011;2301;47.354;8.528;2022-12-10T06:00:32;27.27;;;17.30;;
4577;SDS011;2301;47.354;8.528;2022-12-10T06:03:00;24.35;;;14.65;;
4577;SDS011;2301;47.354;8.528;2022-12-10T06:05:28;22.42;;;16.08;;
4577;SDS011;2301;47.354;8.528;2022-12-10T06:07:55;24.00;;;15.63;;
4577;SDS011;2301;47.354;8.528;2022-12-10T06:10:22;25.40;;;15.82;;
4577;SDS011;2301;47.354;8.528;2022-12-10T06:12:49;24.08;;;15.43;;
4577;SDS011;2301;47.354;8.528;2022-12-10T06:15:16;26.67;;;16.60;;
4577;SDS011;2301;47.354;8.528;2022-12-10T06:17:43;27.05;;;17.05;;
4577;SDS011;2301;47.354;8.528;2022-12-10T06:20:11;26.83;;;16.30;;
4577;SDS011;2301;47.354;8.528;2022-12-10T06:22:39;27.42;;;16.55;;
4577;SDS011;2301;47.354;8.528;2022-12-10T06:25:06;24.67;;;16.02;;
4577;SDS011;2301;47.354;8.528;2022-12-10T06:27:34;26.23;;;17.30;;
4577;SDS011;2301;47.354;8.528;2022-12-10T06:30:01;29.33;;;16.67;;
4577;SDS011;2301;47.354;8.528;2022-12-10T06:32:28;25.80;;;16.92;;
4577;SDS011;2301;47.354;8.528;2022-12-10T06:34:55;23.83;;;15.98;;
4577;SDS011;2301;47.354;8.528;2022-12-10T06:37:22;27.67;;;17.05;;
4577;SDS011;2301;47.354;8.528;2022-12-10T06:39:51;24.67;;;15.25;;
4577;SDS011;2301;47.354;8.528;2022-12-10T06:42:18;25.80;;;15.75;;
4577;SDS011;2301;47.354;8.528;2022-12-10T06:44:45;30.42;;;16.48;;
4577;SDS011;2301;47.354;8.528;2022-12-10T06:47:13;26.13;;;16.83;;
4577;SDS011;2301;47.354;8.528;2022-12-10T06:49:40;28.42;;;16.00;;
4577;SDS011;2301;47.354;8.528;2022-12-10T06:52:07;25.63;;;16.42;;
4577;SDS011;2301;47.354;8.528;2022-12-10T06:54:34;23.35;;;15.15;;
4577;SDS011;2301;47.354;8.528;2022-12-10T06:57:02;25.88;;;15.77;;
4577;SDS011;2301;47.354;8.528;2022-12-10T06:59:29;23.23;;;14.65;;
4577;SDS011;2301;47.354;8.528;2022-12-10T07:01:56;22.30;;;15.15;;
4577;SDS011;2301;47.354;8.528;2022-12-10T07:04:23;21.08;;;14.30;;
4577;SDS011;2301;47.354;8.528;2022-12-10T07:06:50;24.77;;;15.68;;
4577;SDS011;2301;47.354;8.528;2022-12-10T07:09:17;21.75;;;14.80;;
4577;SDS011;2301;47.354;8.528;2022-12-10T07:11:44;21.52;;;14.25;;
4577;SDS011;2301;47.354;8.528;2022-12-10T07:14:14;22.92;;;13.63;;
4577;SDS011;2301;47.354;8.528;2022-12-10T07:16:42;22.40;;;14.32;;
4577;SDS011;2301;47.354;8.528;2022-12-10T07:19:10;23.23;;;13.98;;
4577;SDS011;2301;47.354;8.528;2022-12-10T07:21:39;23.42;;;14.40;;
4577;SDS011;2301;47.354;8.528;2022-12-10T07:24:08;18.00;;;12.32;;
4577;SDS011;2301;47.354;8.528;2022-12-10T07:26:38;22.13;;;14.68;;
4577;SDS011;2301;47.354;8.528;2022-12-10T07:29:06;22.65;;;12.68;;
4577;SDS011;2301;47.354;8.528;2022-12-10T07:31:37;20.80;;;13.07;;
4577;SDS011;2301;47.354;8.528;2022-12-10T07:34:04;19.20;;;13.90;;
4577;SDS011;2301;47.354;8.528;2022-12-10T07:36:31;20.83;;;14.10;;
4577;SDS011;2301;47.354;8.528;2022-12-10T07:38:57;22.60;;;14.68;;
4577;SDS011;2301;47.354;8.528;2022-12-10T07:41:24;21.48;;;14.48;;
4577;SDS011;2301;47.354;8.528;2022-12-10T07:43:52;20.73;;;12.80;;
4577;SDS011;2301;47.354;8.528;2022-12-10T07:46:20;20.98;;;13.57;;
4577;SDS011;2301;47.354;8.528;2022-12-10T07:48:50;21.35;;;14.73;;
4577;SDS011;2301;47.354;8.528;2022-12-10T07:51:18;23.65;;;14.57;;
4577;SDS011;2301;47.354;8.528;2022-12-10T07:53:47;21.45;;;14.73;;
4577;SDS011;2301;47.354;8.528;2022-12-10T07:56:16;20.50;;;13.80;;
4577;SDS011;2301;47.354;8.528;2022-12-10T07:58:44;24.80;;;14.40;;
4577;SDS011;2301;47.354;8.528;2022-12-10T08:01:12;23.50;;;14.60;;
4577;SDS011;2301;47.354;8.528;2022-12-10T08:03:40;23.70;;;15.80;;
4577;SDS011;2301;47.354;8.528;2022-12-10T08:06:09;22.08;;;14.85;;
4577;SDS011;2301;47.354;8.528;2022-12-10T08:08:38;22.77;;;14.43;;
4577;SDS011;2301;47.354;8.528;2022-12-10T08:11:06;23.13;;;15.63;;
4577;SDS011;2301;47.354;8.528;2022-12-10T08:13:33;22.88;;;14.90;;
4577;SDS011;2301;47.354;8.528;2022-12-10T08:16:01;25.00;;;16.02;;
4577;SDS011;2301;47.354;8.528;2022-12-10T08:18:29;24.50;;;15.48;;
4577;SDS011;2301;47.354;8.528;2022-12-10T08:20:56;25.17;;;15.38;;
4577;SDS011;2301;47.354;8.528;2022-12-10T08:23:24;22.85;;;14.70;;
4577;SDS011;2301;47.354;8.528;2022-12-10T08:25:52;25.23;;;15.95;;
4577;SDS011;2301;47.354;8.528;2022-12-10T08:28:18;24.70;;;15.68;;
4577;SDS011;2301;47.354;8.528;2022-12-10T08:30:46;25.88;;;16.23;;
4577;SDS011;2301;47.354;8.528;2022-12-10T08:33:13;26.63;;;15.52;;
4577;SDS011;2301;47.354;8.528;2022-12-10T08:35:40;26.48;;;15.65;;
4577;SDS011;2301;47.354;8.528;2022-12-10T08:38:07;19.95;;;13.95;;
4577;SDS011;2301;47.354;8.528;2022-12-10T08:40:39;23.38;;;14.90;;
4577;SDS011;2301;47.354;8.528;2022-12-10T08:43:06;23.38;;;14.90;;
4577;SDS011;2301;47.354;8.528;2022-12-10T08:45:33;24.15;;;14.63;;
4577;SDS011;2301;47.354;8.528;2022-12-10T08:48:01;21.33;;;13.75;;
4577;SDS011;2301;47.354;8.528;2022-12-10T08:50:29;24.50;;;15.00;;
4577;SDS011;2301;47.354;8.528;2022-12-10T08:52:56;22.00;;;14.75;;
4577;SDS011;2301;47.354;8.528;2022-12-10T08:55:22;19.23;;;13.57;;
4577;SDS011;2301;47.354;8.528;2022-12-10T08:57:51;20.45;;;13.32;;
4577;SDS011;2301;47.354;8.528;2022-12-10T09:00:18;21.13;;;12.35;;
4577;SDS011;2301;47.354;8.528;2022-12-10T09:02:45;21.80;;;13.20;;
4577;SDS011;2301;47.354;8.528;2022-12-10T09:05:12;30.15;;;12.82;;
4577;SDS011;2301;47.354;8.528;2022-12-10T09:07:39;20.15;;;12.15;;
4577;SDS011;2301;47.354;8.528;2022-12-10T09:10:06;17.27;;;11.98;;
4577;SDS011;2301;47.354;8.528;2022-12-10T09:12:35;17.95;;;12.48;;
4577;SDS011;2301;47.354;8.528;2022-12-10T09:15:04;21.67;;;12.07;;
4577;SDS011;2301;47.354;8.528;2022-12-10T09:17:34;16.13;;;11.45;;
4577;SDS011;2301;47.354;8.528;2022-12-10T09:20:01;19.48;;;10.95;;
4577;SDS011;2301;47.354;8.528;2022-12-10T09:22:29;19.10;;;12.82;;
4577;SDS011;2301;47.354;8.528;2022-12-10T09:24:57;13.70;;;10.40;;
4577;SDS011;2301;47.354;8.528;2022-12-10T09:27:24;15.00;;;10.70;;
4577;SDS011;2301;47.354;8.528;2022-12-10T09:29:52;13.85;;;9.68;;
4577;SDS011;2301;47.354;8.528;2022-12-10T09:32:20;13.13;;;9.25;;
4577;SDS011;2301;47.354;8.528;2022-12-10T09:34:50;13.20;;;9.90;;
4577;SDS011;2301;47.354;8.528;2022-12-10T09:37:17;14.82;;;10.98;;
4577;SDS011;2301;47.354;8.528;2022-12-10T09:39:44;13.13;;;9.02;;
4577;SDS011;2301;47.354;8.528;2022-12-10T09:42:14;14.98;;;10.40;;
4577;SDS011;2301;47.354;8.528;2022-12-10T09:44:52;12.25;;;9.98;;
4577;SDS011;2301;47.354;8.528;2022-12-10T09:47:31;14.05;;;9.80;;
4577;SDS011;2301;47.354;8.528;2022-12-10T09:50:06;13.52;;;9.70;;
4577;SDS011;2301;47.354;8.528;2022-12-10T09:52:43;13.45;;;10.40;;
4577;SDS011;2301;47.354;8.528;2022-12-10T09:55:13;11.93;;;9.25;;
4577;SDS011;2301;47.354;8.528;2022-12-10T09:57:43;15.63;;;10.52;;
4577;SDS011;2301;47.354;8.528;2022-12-10T10:00:18;13.38;;;9.95;;
4577;SDS011;2301;47.354;8.528;2022-12-10T10:02:49;13.82;;;9.73;;
4577;SDS011;2301;47.354;8.528;2022-12-10T10:05:19;13.75;;;10.27;;
4577;SDS011;2301;47.354;8.528;2022-12-10T10:07:49;14.73;;;10.40;;
4577;SDS011;2301;47.354;8.528;2022-12-10T10:10:21;17.30;;;10.13;;
4577;SDS011;2301;47.354;8.528;2022-12-10T10:12:51;13.18;;;9.90;;
4577;SDS011;2301;47.354;8.528;2022-12-10T10:15:22;13.20;;;9.95;;
4577;SDS011;2301;47.354;8.528;2022-12-10T10:17:53;15.05;;;10.77;;
4577;SDS011;2301;47.354;8.528;2022-12-10T10:20:22;17.23;;;11.55;;
4577;SDS011;2301;47.354;8.528;2022-12-10T10:22:50;15.60;;;11.15;;
4577;SDS011;2301;47.354;8.528;2022-12-10T10:25:17;15.63;;;11.38;;
4577;SDS011;2301;47.354;8.528;2022-12-10T10:27:45;15.98;;;9.60;;
4577;SDS011;2301;47.354;8.528;2022-12-10T10:30:14;16.23;;;11.35;;
4577;SDS011;2301;47.354;8.528;2022-12-10T10:32:47;16.33;;;11.18;;
4577;SDS011;2301;47.354;8.528;2022-12-10T10:35:22;15.45;;;11.73;;
4577;SDS011;2301;47.354;8.528;2022-12-10T10:37:58;14.30;;;10.65;;
4577;SDS011;2301;47.354;8.528;2022-12-10T10:40:28;16.80;;;10.95;;
4577;SDS011;2301;47.354;8.528;2022-12-10T10:42:58;16.25;;;10.95;;
4577;SDS011;2301;47.354;8.528;2022-12-10T10:45:38;16.33;;;11.15;;
4577;SDS011;2301;47.354;8.528;2022-12-10T10:48:11;15.35;;;10.38;;
4577;SDS011;2301;47.354;8.528;2022-12-10T10:50:42;15.27;;;10.20;;
4577;SDS011;2301;47.354;8.528;2022-12-10T10:53:24;16.48;;;11.25;;
4577;SDS011;2301;47.354;8.528;2022-12-10T10:55:54;17.67;;;11.55;;
4577;SDS011;2301;47.354;8.528;2022-12-10T10:58:24;15.55;;;10.95;;
4577;SDS011;2301;47.354;8.528;2022-12-10T11:00:59;14.98;;;10.35;;
4577;SDS011;2301;47.354;8.528;2022-12-10T11:03:27;19.23;;;11.40;;
4577;SDS011;2301;47.354;8.528;2022-12-10T11:05:57;16.55;;;10.30;;
4577;SDS011;2301;47.354;8.528;2022-12-10T11:08:26;19.08;;;11.13;;
4577;SDS011;2301;47.354;8.528;2022-12-10T11:10:58;21.08;;;10.93;;
4577;SDS011;2301;47.354;8.528;2022-12-10T11:13:28;19.98;;;11.77;;
4577;SDS011;2301;47.354;8.528;2022-12-10T11:15:57;18.02;;;11.02;;
4577;SDS011;2301;47.354;8.528;2022-12-10T11:18:30;15.50;;;9.38;;
4577;SDS011;2301;47.354;8.528;2022-12-10T11:21:01;16.95;;;10.82;;
4577;SDS011;2301;47.354;8.528;2022-12-10T11:23:32;19.08;;;11.43;;
4577;SDS011;2301;47.354;8.528;2022-12-10T11:26:11;18.48;;;11.13;;
4577;SDS011;2301;47.354;8.528;2022-12-10T11:29:02;13.65;;;10.10;;
4577;SDS011;2301;47.354;8.528;2022-12-10T11:31:45;14.68;;;10.57;;
4577;SDS011;2301;47.354;8.528;2022-12-10T11:34:22;15.15;;;10.52;;
4577;SDS011;2301;47.354;8.528;2022-12-10T11:37:07;15.10;;;10.30;;
4577;SDS011;2301;47.354;8.528;2022-12-10T11:39:49;17.48;;;10.52;;
4577;SDS011;2301;47.354;8.528;2022-12-10T11:42:30;14.30;;;9.50;;
4577;SDS011;2301;47.354;8.528;2022-12-10T11:45:12;13.77;;;9.90;;
4577;SDS011;2301;47.354;8.528;2022-12-10T11:47:48;15.05;;;10.05;;
4577;SDS011;2301;47.354;8.528;2022-12-10T11:50:31;14.57;;;10.25;;
4577;SDS011;2301;47.354;8.528;2022-12-10T11:53:11;12.80;;;9.05;;
4577;SDS011;2301;47.354;8.528;2022-12-10T11:55:49;12.90;;;9.40;;
4577;SDS011;2301;47.354;8.528;2022-12-10T12:01:22;15.13;;;9.48;;
4577;SDS011;2301;47.354;8.528;2022-12-10T12:04:08;18.40;;;9.95;;
4577;SDS011;2301;47.354;8.528;2022-12-10T12:06:54;14.38;;;8.68;;
4577;SDS011;2301;47.354;8.528;2022-12-10T12:09:35;11.18;;;8.00;;
4577;SDS011;2301;47.354;8.528;2022-12-10T12:12:15;12.60;;;9.38;;
4577;SDS011;2301;47.354;8.528;2022-12-10T12:14:51;10.40;;;8.25;;
4577;SDS011;2301;47.354;8.528;2022-12-10T12:17:21;13.77;;;8.48;;
4577;SDS011;2301;47.354;8.528;2022-12-10T12:19:53;12.25;;;8.23;;
4577;SDS011;2301;47.354;8.528;2022-12-10T12:22:24;15.35;;;8.48;;
4577;SDS011;2301;47.354;8.528;2022-12-10T12:24:55;16.52;;;9.65;;
4577;SDS011;2301;47.354;8.528;2022-12-10T12:27:27;12.90;;;9.02;;
4577;SDS011;2301;47.354;8.528;2022-12-10T12:30:00;10.82;;;8.23;;
4577;SDS011;2301;47.354;8.528;2022-12-10T12:32:32;12.48;;;8.20;;
4577;SDS011;2301;47.354;8.528;2022-12-10T12:35:10;13.63;;;8.13;;
4577;SDS011;2301;47.354;8.528;2022-12-10T12:37:44;10.52;;;8.10;;
4577;SDS011;2301;47.354;8.528;2022-12-10T12:40:20;10.40;;;7.75;;
4577;SDS011;2301;47.354;8.528;2022-12-10T12:42:55;11.23;;;8.05;;
4577;SDS011;2301;47.354;8.528;2022-12-10T12:45:30;12.80;;;8.23;;
4577;SDS011;2301;47.354;8.528;2022-12-10T12:48:02;12.07;;;7.55;;
4577;SDS011;2301;47.354;8.528;2022-12-10T12:50:42;10.40;;;8.48;;
4577;SDS011;2301;47.354;8.528;2022-12-10T12:53:11;10.77;;;7.60;;
4577;SDS011;2301;47.354;8.528;2022-12-10T12:55:44;12.88;;;9.18;;
4577;SDS011;2301;47.354;8.528;2022-12-10T12:58:20;11.15;;;8.45;;
4577;SDS011;2301;47.354;8.528;2022-12-10T13:00:59;13.93;;;9.05;;
4577;SDS011;2301;47.354;8.528;2022-12-10T13:03:33;14.32;;;8.15;;
4577;SDS011;2301;47.354;8.528;2022-12-10T13:06:16;8.45;;;6.97;;
4577;SDS011;2301;47.354;8.528;2022-12-10T13:08:47;8.73;;;7.07;;
4577;SDS011;2301;47.354;8.528;2022-12-10T13:11:29;13.30;;;8.43;;
4577;SDS011;2301;47.354;8.528;2022-12-10T13:14:04;12.27;;;7.68;;
4577;SDS011;2301;47.354;8.528;2022-12-10T13:16:53;10.85;;;7.97;;
4577;SDS011;2301;47.354;8.528;2022-12-10T13:19:27;12.77;;;8.25;;
4577;SDS011;2301;47.354;8.528;2022-12-10T13:21:57;11.20;;;9.20;;
4577;SDS011;2301;47.354;8.528;2022-12-10T13:27:38;12.07;;;8.32;;
4577;SDS011;2301;47.354;8.528;2022-12-10T13:30:30;16.92;;;9.20;;
4577;SDS011;2301;47.354;8.528;2022-12-10T13:33:09;14.85;;;9.30;;
4577;SDS011;2301;47.354;8.528;2022-12-10T13:35:42;14.05;;;8.63;;
4577;SDS011;2301;47.354;8.528;2022-12-10T13:38:20;13.27;;;9.25;;
4577;SDS011;2301;47.354;8.528;2022-12-10T13:40:56;13.23;;;8.75;;
4577;SDS011;2301;47.354;8.528;2022-12-10T13:43:44;12.25;;;8.70;;
4577;SDS011;2301;47.354;8.528;2022-12-10T13:46:50;13.95;;;8.95;;
4577;SDS011;2301;47.354;8.528;2022-12-10T13:49:20;13.77;;;9.32;;
4577;SDS011;2301;47.354;8.528;2022-12-10T13:51:52;13.68;;;8.70;;
4577;SDS011;2301;47.354;8.528;2022-12-10T13:54:44;12.05;;;9.10;;
4577;SDS011;2301;47.354;8.528;2022-12-10T13:57:28;14.73;;;10.48;;
4577;SDS011;2301;47.354;8.528;2022-12-10T14:00:08;17.67;;;12.38;;
4577;SDS011;2301;47.354;8.528;2022-12-10T14:05:55;22.40;;;13.73;;
4577;SDS011;2301;47.354;8.528;2022-12-10T14:08:35;16.15;;;9.77;;
4577;SDS011;2301;47.354;8.528;2022-12-10T14:11:06;15.93;;;10.40;;
4577;SDS011;2301;47.354;8.528;2022-12-10T14:13:40;17.58;;;10.65;;
4577;SDS011;2301;47.354;8.528;2022-12-10T14:16:14;17.95;;;9.75;;
4577;SDS011;2301;47.354;8.528;2022-12-10T14:18:42;16.33;;;10.00;;
4577;SDS011;2301;47.354;8.528;2022-12-10T14:21:18;22.63;;;11.10;;
4577;SDS011;2301;47.354;8.528;2022-12-10T14:23:46;14.98;;;9.93;;
4577;SDS011;2301;47.354;8.528;2022-12-10T14:26:14;15.50;;;10.95;;
4577;SDS011;2301;47.354;8.528;2022-12-10T14:28:44;17.05;;;10.88;;
4577;SDS011;2301;47.354;8.528;2022-12-10T14:31:16;15.40;;;11.00;;
4577;SDS011;2301;47.354;8.528;2022-12-10T14:33:45;19.08;;;10.82;;
4577;SDS011;2301;47.354;8.528;2022-12-10T14:36:15;16.50;;;10.95;;
4577;SDS011;2301;47.354;8.528;2022-12-10T14:38:45;17.58;;;11.75;;
4577;SDS011;2301;47.354;8.528;2022-12-10T14:41:14;21.13;;;11.10;;
4577;SDS011;2301;47.354;8.528;2022-12-10T14:43:44;16.55;;;11.10;;
4577;SDS011;2301;47.354;8.528;2022-12-10T14:46:13;16.52;;;11.10;;
4577;SDS011;2301;47.354;8.528;2022-12-10T14:48:46;14.68;;;10.48;;
4577;SDS011;2301;47.354;8.528;2022-12-10T14:51:16;17.17;;;10.48;;
4577;SDS011;2301;47.354;8.528;2022-12-10T14:53:45;17.25;;;11.52;;
4577;SDS011;2301;47.354;8.528;2022-12-10T14:56:14;17.58;;;11.98;;
4577;SDS011;2301;47.354;8.528;2022-12-10T14:58:46;24.35;;;11.85;;
4577;SDS011;2301;47.354;8.528;2022-12-10T15:01:19;21.63;;;11.82;;
4577;SDS011;2301;47.354;8.528;2022-12-10T15:03:53;19.75;;;12.70;;
4577;SDS011;2301;47.354;8.528;2022-12-10T15:06:20;19.45;;;11.43;;
4577;SDS011;2301;47.354;8.528;2022-12-10T15:08:48;17.25;;;11.20;;
4577;SDS011;2301;47.354;8.528;2022-12-10T15:11:16;17.92;;;11.35;;
4577;SDS011;2301;47.354;8.528;2022-12-10T15:13:46;19.98;;;11.35;;
4577;SDS011;2301;47.354;8.528;2022-12-10T15:16:18;16.63;;;11.73;;
4577;SDS011;2301;47.354;8.528;2022-12-10T15:18:47;19.95;;;12.30;;
4577;SDS011;2301;47.354;8.528;2022-12-10T15:21:14;19.58;;;11.30;;
4577;SDS011;2301;47.354;8.528;2022-12-10T15:23:46;19.45;;;12.10;;